sensor_id;sensor_type;location;lat;lon;timestamp;P1;durP1;ratioP1;P2;durP2;ratioP2
16099;SDS011;8154;50.830;12.082;2023-02-01T00:16:04;0.90;;;0.90;;
16099;SDS011;8154;50.830;12.082;2023-02-01T00:18:38;1.02;;;1.00;;
16099;SDS011;8154;50.830;12.082;2023-02-01T00:21:12;1.10;;;1.10;;
16099;SDS011;8154;50.830;12.082;2023-02-01T00:23:41;1.00;;;1.00;;
16099;SDS011;8154;50.830;12.082;2023-02-01T00:26:17;0.90;;;0.90;;
16099;SDS011;8154;50.830;12.082;2023-02-01T00:28:53;1.23;;;0.90;;
16099;SDS011;8154;50.830;12.082;2023-02-01T00:31:34;1.05;;;1.00;;
16099;SDS011;8154;50.830;12.082;2023-02-01T00:34:09;0.80;;;0.80;;
16099;SDS011;8154;50.830;12.082;2023-02-01T00:36:41;0.90;;;0.90;;
16099;SDS011;8154;50.830;12.082;2023-02-01T00:39:10;1.10;;;1.00;;
16099;SDS011;8154;50.830;12.082;2023-02-01T00:41:39;1.02;;;0.98;;
16099;SDS011;8154;50.830;12.082;2023-02-01T00:44:09;1.00;;;1.00;;
16099;SDS011;8154;50.830;12.082;2023-02-01T00:46:37;0.90;;;0.90;;
16099;SDS011;8154;50.830;12.082;2023-02-01T00:49:04;0.93;;;0.93;;
16099;SDS011;8154;50.830;12.082;2023-02-01T00:51:37;0.90;;;0.90;;
16099;SDS011;8154;50.830;12.082;2023-02-01T00:54:06;0.93;;;0.93;;
16099;SDS011;8154;50.830;12.082;2023-02-01T00:56:37;0.80;;;0.80;;
16099;SDS011;8154;50.830;12.082;2023-02-01T00:59:05;0.90;;;0.90;;
16099;SDS011;8154;50.830;12.082;2023-02-01T01:01:34;1.08;;;1.00;;
16099;SDS011;8154;50.830;12.082;2023-02-01T01:04:05;0.90;;;0.90;;
16099;SDS011;8154;50.830;12.082;2023-02-01T01:06:33;1.00;;;1.00;;
16099;SDS011;8154;50.830;12.082;2023-02-01T01:09:05;0.90;;;0.90;;
16099;SDS011;8154;50.830;12.082;2023-02-01T01:11:36;0.90;;;0.90;;
16099;SDS011;8154;50.830;12.082;2023-02-01T01:42:10;1.00;;;1.00;;
16099;SDS011;8154;50.830;12.082;2023-02-01T01:47:39;0.80;;;0.80;;
16099;SDS011;8154;50.830;12.082;2023-02-01T01:50:12;0.85;;;0.85;;
16099;SDS011;8154;50.830;12.082;2023-02-01T01:52:50;1.00;;;1.00;;
16099;SDS011;8154;50.830;12.082;2023-02-01T01:55:22;0.90;;;0.90;;
16099;SDS011;8154;50.830;12.082;2023-02-01T01:57:58;0.80;;;0.80;;
16099;SDS011;8154;50.830;12.082;2023-02-01T02:00:35;0.90;;;0.90;;
16099;SDS011;8154;50.830;12.082;2023-02-01T02:03:11;1.00;;;0.90;;
16099;SDS011;8154;50.830;12.082;2023-02-01T02:05:46;0.80;;;0.80;;
16099;SDS011;8154;50.830;12.082;2023-02-01T02:08:17;0.90;;;0.90;;
16099;SDS011;8154;50.830;12.082;2023-02-01T02:10:50;0.82;;;0.82;;
16099;SDS011;8154;50.830;12.082;2023-02-01T02:13:38;0.90;;;0.80;;
16099;SDS011;8154;50.830;12.082;2023-02-01T03:16:36;0.70;;;0.70;;
16099;SDS011;8154;50.830;12.082;2023-02-01T03:22:01;0.70;;;0.70;;
16099;SDS011;8154;50.830;12.082;2023-02-01T03:24:38;0.80;;;0.80;;
16099;SDS011;8154;50.830;12.082;2023-02-01T03:30:09;0.80;;;0.80;;
16099;SDS011;8154;50.830;12.082;2023-02-01T03:32:46;0.80;;;0.80;;
16099;SDS011;8154;50.830;12.082;2023-02-01T03:40:56;0.70;;;0.70;;
16099;SDS011;8154;50.830;12.082;2023-02-01T03:43:36;0.93;;;0.90;;
16099;SDS011;8154;50.830;12.082;2023-02-01T03:46:36;0.82;;;0.80;;
16099;SDS011;8154;50.830;12.082;2023-02-01T03:49:10;0.90;;;0.75;;
16099;SDS011;8154;50.830;12.082;2023-02-01T03:51:44;0.80;;;0.80;;
16099;SDS011;8154;50.830;12.082;2023-02-01T03:54:13;0.95;;;0.90;;
16099;SDS011;8154;50.830;12.082;2023-02-01T03:56:45;0.70;;;0.70;;
16099;SDS011;8154;50.830;12.082;2023-02-01T03:59:14;0.93;;;0.90;;
16099;SDS011;8154;50.830;12.082;2023-02-01T04:01:42;0.73;;;0.73;;
16099;SDS011;8154;50.830;12.082;2023-02-01T04:04:17;0.70;;;0.70;;
16099;SDS011;8154;50.830;12.082;2023-02-01T04:06:50;0.90;;;0.90;;
16099;SDS011;8154;50.830;12.082;2023-02-01T04:09:19;0.82;;;0.80;;
16099;SDS011;8154;50.830;12.082;2023-02-01T04:11:50;0.70;;;0.70;;
16099;SDS011;8154;50.830;12.082;2023-02-01T04:14:18;0.77;;;0.77;;
16099;SDS011;8154;50.830;12.082;2023-02-01T04:16:47;0.70;;;0.70;;
16099;SDS011;8154;50.830;12.082;2023-02-01T04:19:14;1.35;;;0.90;;
16099;SDS011;8154;50.830;12.082;2023-02-01T05:20:48;0.88;;;0.85;;
16099;SDS011;8154;50.830;12.082;2023-02-01T05:23:18;0.70;;;0.70;;
16099;SDS011;8154;50.830;12.082;2023-02-01T05:25:46;0.90;;;0.90;;
16099;SDS011;8154;50.830;12.082;2023-02-01T05:28:18;0.75;;;0.75;;
16099;SDS011;8154;50.830;12.082;2023-02-01T05:30:47;0.80;;;0.80;;
16099;SDS011;8154;50.830;12.082;2023-02-01T05:33:14;0.70;;;0.70;;
16099;SDS011;8154;50.830;12.082;2023-02-01T05:35:43;0.80;;;0.80;;
16099;SDS011;8154;50.830;12.082;2023-02-01T05:38:18;1.10;;;1.00;;
16099;SDS011;8154;50.830;12.082;2023-02-01T05:40:46;1.02;;;1.00;;
16099;SDS011;8154;50.830;12.082;2023-02-01T05:43:16;1.00;;;0.90;;
16099;SDS011;8154;50.830;12.082;2023-02-01T05:45:44;1.02;;;1.00;;
16099;SDS011;8154;50.830;12.082;2023-02-01T05:48:16;1.17;;;1.08;;
16099;SDS011;8154;50.830;12.082;2023-02-01T05:50:47;1.15;;;1.05;;
16099;SDS011;8154;50.830;12.082;2023-02-01T05:53:19;1.30;;;1.20;;
16099;SDS011;8154;50.830;12.082;2023-02-01T05:55:50;1.30;;;1.20;;
16099;SDS011;8154;50.830;12.082;2023-02-01T05:58:20;1.67;;;1.42;;
16099;SDS011;8154;50.830;12.082;2023-02-01T06:00:51;1.40;;;1.30;;
16099;SDS011;8154;50.830;12.082;2023-02-01T06:03:22;1.48;;;1.38;;
16099;SDS011;8154;50.830;12.082;2023-02-01T06:05:51;1.55;;;1.35;;
16099;SDS011;8154;50.830;12.082;2023-02-01T06:08:21;1.60;;;1.50;;
16099;SDS011;8154;50.830;12.082;2023-02-01T06:11:05;1.50;;;1.40;;
16099;SDS011;8154;50.830;12.082;2023-02-01T06:13:34;1.67;;;1.40;;
16099;SDS011;8154;50.830;12.082;2023-02-01T06:16:07;1.40;;;1.30;;
16099;SDS011;8154;50.830;12.082;2023-02-01T06:18:36;1.50;;;1.40;;
16099;SDS011;8154;50.830;12.082;2023-02-01T10:24:09;4.75;;;4.35;;
16099;SDS011;8154;50.830;12.082;2023-02-01T10:29:44;4.97;;;4.25;;
16099;SDS011;8154;50.830;12.082;2023-02-01T10:32:17;4.85;;;4.20;;
16099;SDS011;8154;50.830;12.082;2023-02-01T10:34:51;4.47;;;4.07;;
16099;SDS011;8154;50.830;12.082;2023-02-01T10:40:02;4.60;;;4.20;;
16099;SDS011;8154;50.830;12.082;2023-02-01T10:42:44;4.75;;;4.35;;
16099;SDS011;8154;50.830;12.082;2023-02-01T10:45:15;5.20;;;4.70;;
16099;SDS011;8154;50.830;12.082;2023-02-01T10:47:52;4.95;;;4.55;;
16099;SDS011;8154;50.830;12.082;2023-02-01T10:50:25;5.07;;;4.68;;
16099;SDS011;8154;50.830;12.082;2023-02-01T10:55:47;4.97;;;4.57;;
16099;SDS011;8154;50.830;12.082;2023-02-01T11:03:52;5.30;;;4.80;;
16099;SDS011;8154;50.830;12.082;2023-02-01T11:09:41;4.75;;;4.35;;
16099;SDS011;8154;50.830;12.082;2023-02-01T11:17:33;4.95;;;4.55;;
16099;SDS011;8154;50.830;12.082;2023-02-01T11:22:45;5.10;;;4.70;;
16099;SDS011;8154;50.830;12.082;2023-02-01T12:38:22;3.67;;;3.38;;
16099;SDS011;8154;50.830;12.082;2023-02-01T12:52:00;3.50;;;3.20;;
16099;SDS011;8154;50.830;12.082;2023-02-01T12:54:36;3.80;;;3.50;;
16099;SDS011;8154;50.830;12.082;2023-02-01T12:57:12;3.60;;;3.30;;
16099;SDS011;8154;50.830;12.082;2023-02-01T13:02:39;3.75;;;3.45;;
16099;SDS011;8154;50.830;12.082;2023-02-01T13:08:14;3.47;;;3.17;;
16099;SDS011;8154;50.830;12.082;2023-02-01T13:10:51;3.42;;;3.13;;
16099;SDS011;8154;50.830;12.082;2023-02-01T13:19:09;3.30;;;3.00;;
16099;SDS011;8154;50.830;12.082;2023-02-01T13:21:39;3.22;;;2.95;;
16099;SDS011;8154;50.830;12.082;2023-02-01T13:24:16;3.47;;;3.17;;
16099;SDS011;8154;50.830;12.082;2023-02-01T13:27:03;3.33;;;3.08;;
16099;SDS011;8154;50.830;12.082;2023-02-01T13:29:30;3.30;;;3.00;;
16099;SDS011;8154;50.830;12.082;2023-02-01T13:32:05;3.15;;;2.90;;
16099;SDS011;8154;50.830;12.082;2023-02-01T13:37:40;3.40;;;3.20;;
16099;SDS011;8154;50.830;12.082;2023-02-01T13:40:45;3.30;;;3.00;;
16099;SDS011;8154;50.830;12.082;2023-02-01T13:43:48;3.10;;;2.90;;
16099;SDS011;8154;50.830;12.082;2023-02-01T13:46:13;3.20;;;2.95;;
16099;SDS011;8154;50.830;12.082;2023-02-01T13:48:52;3.00;;;2.80;;
16099;SDS011;8154;50.830;12.082;2023-02-01T13:52:00;3.17;;;2.90;;
16099;SDS011;8154;50.830;12.082;2023-02-01T13:57:03;3.00;;;2.80;;
16099;SDS011;8154;50.830;12.082;2023-02-01T14:05:11;3.00;;;2.80;;
16099;SDS011;8154;50.830;12.082;2023-02-01T14:13:27;3.00;;;2.80;;
16099;SDS011;8154;50.830;12.082;2023-02-01T14:37:26;2.85;;;2.65;;
16099;SDS011;8154;50.830;12.082;2023-02-01T14:45:45;2.72;;;2.53;;
16099;SDS011;8154;50.830;12.082;2023-02-01T14:47:49;2.42;;;2.22;;
16099;SDS011;8154;50.830;12.082;2023-02-01T14:55:47;2.70;;;2.50;;
16099;SDS011;8154;50.830;12.082;2023-02-01T15:01:06;2.60;;;2.40;;
16099;SDS011;8154;50.830;12.082;2023-02-01T15:04:13;2.50;;;2.30;;
16099;SDS011;8154;50.830;12.082;2023-02-01T15:06:52;2.70;;;2.50;;
16099;SDS011;8154;50.830;12.082;2023-02-01T15:09:24;2.60;;;2.40;;
16099;SDS011;8154;50.830;12.082;2023-02-01T15:14:32;2.40;;;2.20;;
16099;SDS011;8154;50.830;12.082;2023-02-01T15:17:01;2.65;;;2.45;;
16099;SDS011;8154;50.830;12.082;2023-02-01T16:18:33;2.60;;;2.40;;
16099;SDS011;8154;50.830;12.082;2023-02-01T16:21:01;2.20;;;2.10;;
16099;SDS011;8154;50.830;12.082;2023-02-01T16:23:28;2.47;;;2.28;;
16099;SDS011;8154;50.830;12.082;2023-02-01T16:25:56;2.40;;;2.20;;
16099;SDS011;8154;50.830;12.082;2023-02-01T16:28:24;2.40;;;2.20;;
16099;SDS011;8154;50.830;12.082;2023-02-01T16:30:52;2.40;;;2.20;;
16099;SDS011;8154;50.830;12.082;2023-02-01T16:33:20;2.40;;;2.20;;
16099;SDS011;8154;50.830;12.082;2023-02-01T16:35:50;2.25;;;2.10;;
16099;SDS011;8154;50.830;12.082;2023-02-01T16:38:21;2.47;;;2.28;;
16099;SDS011;8154;50.830;12.082;2023-02-01T16:40:50;2.20;;;2.10;;
16099;SDS011;8154;50.830;12.082;2023-02-01T16:43:19;2.45;;;2.25;;
16099;SDS011;8154;50.830;12.082;2023-02-01T16:45:47;2.65;;;2.45;;
16099;SDS011;8154;50.830;12.082;2023-02-01T16:48:22;2.40;;;2.20;;
16099;SDS011;8154;50.830;12.082;2023-02-01T16:51:03;2.60;;;2.40;;
16099;SDS011;8154;50.830;12.082;2023-02-01T16:53:37;3.40;;;2.20;;
16099;SDS011;8154;50.830;12.082;2023-02-01T16:56:14;6.88;;;2.40;;
16099;SDS011;8154;50.830;12.082;2023-02-01T16:58:45;2.83;;;2.25;;
16099;SDS011;8154;50.830;12.082;2023-02-01T17:01:14;2.38;;;2.10;;
16099;SDS011;8154;50.830;12.082;2023-02-01T17:03:44;4.22;;;2.50;;
16099;SDS011;8154;50.830;12.082;2023-02-01T17:06:13;2.45;;;2.25;;
16099;SDS011;8154;50.830;12.082;2023-02-01T17:08:50;3.97;;;2.55;;
16099;SDS011;8154;50.830;12.082;2023-02-01T17:11:21;2.85;;;2.15;;
16099;SDS011;8154;50.830;12.082;2023-02-01T17:13:49;2.60;;;2.40;;
16099;SDS011;8154;50.830;12.082;2023-02-01T17:16:24;3.38;;;2.30;;
16099;SDS011;8154;50.830;12.082;2023-02-01T18:20:45;2.75;;;1.90;;
16099;SDS011;8154;50.830;12.082;2023-02-01T18:23:22;3.20;;;2.00;;
16099;SDS011;8154;50.830;12.082;2023-02-01T18:25:50;3.65;;;2.03;;
16099;SDS011;8154;50.830;12.082;2023-02-01T18:28:18;2.58;;;1.90;;
16099;SDS011;8154;50.830;12.082;2023-02-01T18:30:49;5.03;;;1.90;;
16099;SDS011;8154;50.830;12.082;2023-02-01T18:33:20;3.47;;;1.90;;
16099;SDS011;8154;50.830;12.082;2023-02-01T18:35:47;2.00;;;1.80;;
16099;SDS011;8154;50.830;12.082;2023-02-01T18:38:14;4.03;;;1.77;;
16099;SDS011;8154;50.830;12.082;2023-02-01T18:40:46;6.18;;;1.83;;
16099;SDS011;8154;50.830;12.082;2023-02-01T18:43:19;4.43;;;1.70;;
16099;SDS011;8154;50.830;12.082;2023-02-01T18:45:53;3.45;;;1.80;;
16099;SDS011;8154;50.830;12.082;2023-02-01T18:48:21;6.03;;;2.00;;
16099;SDS011;8154;50.830;12.082;2023-02-01T18:50:50;4.15;;;1.70;;
16099;SDS011;8154;50.830;12.082;2023-02-01T18:53:22;3.17;;;1.73;;
16099;SDS011;8154;50.830;12.082;2023-02-01T18:55:53;4.60;;;1.80;;
16099;SDS011;8154;50.830;12.082;2023-02-01T18:58:20;4.07;;;1.65;;
16099;SDS011;8154;50.830;12.082;2023-02-01T19:00:54;3.80;;;1.90;;
16099;SDS011;8154;50.830;12.082;2023-02-01T19:03:27;3.15;;;1.80;;
16099;SDS011;8154;50.830;12.082;2023-02-01T19:06:00;6.53;;;1.88;;
16099;SDS011;8154;50.830;12.082;2023-02-01T19:08:34;2.75;;;1.70;;
16099;SDS011;8154;50.830;12.082;2023-02-01T19:11:08;3.35;;;1.70;;
16099;SDS011;8154;50.830;12.082;2023-02-01T19:13:38;5.55;;;1.88;;
16099;SDS011;8154;50.830;12.082;2023-02-01T19:16:10;4.55;;;1.73;;
16099;SDS011;8154;50.830;12.082;2023-02-01T19:18:42;4.68;;;1.77;;
16099;SDS011;8154;50.830;12.082;2023-02-01T20:25:11;5.40;;;1.80;;
16099;SDS011;8154;50.830;12.082;2023-02-01T20:27:41;5.20;;;1.60;;
16099;SDS011;8154;50.830;12.082;2023-02-01T20:30:09;3.10;;;1.80;;
16099;SDS011;8154;50.830;12.082;2023-02-01T20:32:38;3.70;;;1.70;;
16099;SDS011;8154;50.830;12.082;2023-02-01T20:35:14;5.97;;;1.65;;
16099;SDS011;8154;50.830;12.082;2023-02-01T20:37:40;3.90;;;1.50;;
16099;SDS011;8154;50.830;12.082;2023-02-01T20:40:11;7.13;;;1.75;;
16099;SDS011;8154;50.830;12.082;2023-02-01T20:42:41;1.88;;;1.50;;
16099;SDS011;8154;50.830;12.082;2023-02-01T20:45:16;3.33;;;1.60;;
16099;SDS011;8154;50.830;12.082;2023-02-01T20:47:48;2.78;;;1.70;;
16099;SDS011;8154;50.830;12.082;2023-02-01T20:50:20;2.85;;;1.58;;
16099;SDS011;8154;50.830;12.082;2023-02-01T20:52:51;2.58;;;1.48;;
16099;SDS011;8154;50.830;12.082;2023-02-01T20:55:36;6.55;;;1.80;;
16099;SDS011;8154;50.830;12.082;2023-02-01T20:58:11;2.65;;;1.50;;
16099;SDS011;8154;50.830;12.082;2023-02-01T21:00:40;4.00;;;1.50;;
16099;SDS011;8154;50.830;12.082;2023-02-01T21:03:09;3.05;;;1.50;;
16099;SDS011;8154;50.830;12.082;2023-02-01T21:05:45;3.42;;;1.52;;
16099;SDS011;8154;50.830;12.082;2023-02-01T21:08:19;3.92;;;1.50;;
16099;SDS011;8154;50.830;12.082;2023-02-01T21:10:57;4.43;;;1.70;;
16099;SDS011;8154;50.830;12.082;2023-02-01T21:13:36;3.13;;;1.45;;
16099;SDS011;8154;50.830;12.082;2023-02-01T21:16:10;4.38;;;1.70;;
16099;SDS011;8154;50.830;12.082;2023-02-01T21:18:40;4.75;;;1.40;;
16099;SDS011;8154;50.830;12.082;2023-02-01T21:21:12;3.58;;;1.45;;
16099;SDS011;8154;50.830;12.082;2023-02-01T21:23:43;3.58;;;1.70;;
16099;SDS011;8154;50.830;12.082;2023-02-01T21:26:14;2.50;;;1.48;;
16099;SDS011;8154;50.830;12.082;2023-02-01T21:28:44;1.65;;;1.48;;
16099;SDS011;8154;50.830;12.082;2023-02-01T21:31:14;3.72;;;1.67;;
16099;SDS011;8154;50.830;12.082;2023-02-01T21:36:40;2.72;;;1.58;;
16099;SDS011;8154;50.830;12.082;2023-02-01T21:39:07;2.03;;;1.42;;
16099;SDS011;8154;50.830;12.082;2023-02-01T21:41:37;4.70;;;1.40;;
16099;SDS011;8154;50.830;12.082;2023-02-01T21:44:22;4.07;;;1.45;;
16099;SDS011;8154;50.830;12.082;2023-02-01T21:46:51;3.75;;;1.50;;
16099;SDS011;8154;50.830;12.082;2023-02-01T21:49:23;3.15;;;1.50;;
16099;SDS011;8154;50.830;12.082;2023-02-01T21:51:54;1.92;;;1.30;;
16099;SDS011;8154;50.830;12.082;2023-02-01T21:54:22;6.45;;;1.70;;
16099;SDS011;8154;50.830;12.082;2023-02-01T21:56:49;3.92;;;1.50;;
16099;SDS011;8154;50.830;12.082;2023-02-01T21:59:16;6.07;;;1.33;;
16099;SDS011;8154;50.830;12.082;2023-02-01T22:01:43;3.97;;;1.40;;
16099;SDS011;8154;50.830;12.082;2023-02-01T22:04:10;3.33;;;1.30;;
16099;SDS011;8154;50.830;12.082;2023-02-01T22:06:37;2.58;;;1.50;;
16099;SDS011;8154;50.830;12.082;2023-02-01T22:09:07;2.20;;;1.40;;
16099;SDS011;8154;50.830;12.082;2023-02-01T22:11:50;2.42;;;1.27;;
16099;SDS011;8154;50.830;12.082;2023-02-01T22:14:19;2.53;;;1.33;;
16099;SDS011;8154;50.830;12.082;2023-02-01T22:16:47;4.13;;;1.33;;
16099;SDS011;8154;50.830;12.082;2023-02-01T22:19:14;3.83;;;1.20;;
16099;SDS011;8154;50.830;12.082;2023-02-01T22:21:47;2.20;;;1.20;;
16099;SDS011;8154;50.830;12.082;2023-02-01T22:24:15;2.38;;;1.27;;
16099;SDS011;8154;50.830;12.082;2023-02-01T22:26:44;2.97;;;1.38;;
16099;SDS011;8154;50.830;12.082;2023-02-01T22:29:11;1.70;;;1.30;;
16099;SDS011;8154;50.830;12.082;2023-02-01T22:31:40;2.97;;;1.10;;
16099;SDS011;8154;50.830;12.082;2023-02-01T22:34:10;3.97;;;1.30;;
16099;SDS011;8154;50.830;12.082;2023-02-01T22:36:37;3.10;;;1.38;;
16099;SDS011;8154;50.830;12.082;2023-02-01T22:39:04;2.35;;;1.35;;
16099;SDS011;8154;50.830;12.082;2023-02-01T22:41:32;2.67;;;1.20;;
16099;SDS011;8154;50.830;12.082;2023-02-01T22:43:58;3.72;;;1.35;;
16099;SDS011;8154;50.830;12.082;2023-02-01T22:46:28;4.43;;;1.38;;
16099;SDS011;8154;50.830;12.082;2023-02-01T22:49:04;2.28;;;1.15;;
16099;SDS011;8154;50.830;12.082;2023-02-01T22:51:31;3.65;;;1.17;;
16099;SDS011;8154;50.830;12.082;2023-02-01T22:53:58;2.65;;;1.23;;
16099;SDS011;8154;50.830;12.082;2023-02-01T22:56:29;2.83;;;1.30;;
16099;SDS011;8154;50.830;12.082;2023-02-01T22:58:59;1.67;;;1.00;;
16099;SDS011;8154;50.830;12.082;2023-02-01T23:01:32;6.13;;;1.20;;
16099;SDS011;8154;50.830;12.082;2023-02-01T23:04:00;4.07;;;1.20;;
16099;SDS011;8154;50.830;12.082;2023-02-01T23:06:29;1.33;;;1.10;;
16099;SDS011;8154;50.830;12.082;2023-02-01T23:08:59;2.00;;;1.10;;
16099;SDS011;8154;50.830;12.082;2023-02-01T23:11:28;2.70;;;1.20;;
16099;SDS011;8154;50.830;12.082;2023-02-01T23:13:56;1.20;;;1.08;;
16099;SDS011;8154;50.830;12.082;2023-02-01T23:16:24;1.70;;;1.23;;
16099;SDS011;8154;50.830;12.082;2023-02-01T23:18:51;3.72;;;1.20;;
16099;SDS011;8154;50.830;12.082;2023-02-01T23:21:18;1.98;;;1.00;;
16099;SDS011;8154;50.830;12.082;2023-02-01T23:23:48;3.63;;;1.20;;
16099;SDS011;8154;50.830;12.082;2023-02-01T23:26:17;2.08;;;1.00;;
16099;SDS011;8154;50.830;12.082;2023-02-01T23:28:46;4.63;;;1.20;;
16099;SDS011;8154;50.830;12.082;2023-02-01T23:31:15;3.25;;;1.20;;
16099;SDS011;8154;50.830;12.082;2023-02-01T23:33:43;2.35;;;1.10;;
16099;SDS011;8154;50.830;12.082;2023-02-01T23:36:14;1.90;;;0.80;;
16099;SDS011;8154;50.830;12.082;2023-02-01T23:38:42;2.50;;;1.00;;
16099;SDS011;8154;50.830;12.082;2023-02-01T23:41:10;1.13;;;1.00;;
16099;SDS011;8154;50.830;12.082;2023-02-01T23:43:37;5.10;;;1.15;;
16099;SDS011;8154;50.830;12.082;2023-02-01T23:46:43;2.90;;;1.20;;
16099;SDS011;8154;50.830;12.082;2023-02-01T23:49:12;6.22;;;1.10;;
16099;SDS011;8154;50.830;12.082;2023-02-01T23:51:41;1.75;;;1.10;;
16099;SDS011;8154;50.830;12.082;2023-02-01T23:54:09;4.53;;;1.10;;
16099;SDS011;8154;50.830;12.082;2023-02-01T23:56:38;4.03;;;1.23;;
16099;SDS011;8154;50.830;12.082;2023-02-01T23:59:11;3.33;;;1.13;;
